AEE974 LGAV-LYPG
Flight info
| Callsign | AEE974 |
|---|---|
| Flight time | 1h 24m |
| Altitude | 22000 |
| Route | KOR L613 YNN L604 DIMIS L604 RETRA |
| Aircraft | DH8D/M-SDE2E3FGRY/H |
Departure
| Time | 2026-05-05 14:27 |
|---|---|
| Airport | Athens Eleftherios Venizelos International Airport (LGAV) |
Arrival
| Time | 2026-05-05 15:52 |
|---|---|
| Airport | Podgorica Airport / Podgorica Golubovci Airbase (LYPG) |
| Time | Latitude | Longitude | Altitude | Speed | Heading |
|---|---|---|---|---|---|
| 2026-05-05 14:12 | 37.94311 | 23.95413 | 291 ft | 0 kts | 37° |
| 2026-05-05 14:23 | 37.94319 | 23.95421 | 291 ft | 3 kts | 39° |
| 2026-05-05 14:23 | 37.94337 | 23.95484 | 290 ft | 13 kts | 122° |
| 2026-05-05 14:23 | 37.94273 | 23.95593 | 287 ft | 16 kts | 126° |
| 2026-05-05 14:24 | 37.94246 | 23.95704 | 286 ft | 13 kts | 45° |
| 2026-05-05 14:24 | 37.94321 | 23.95776 | 287 ft | 14 kts | 37° |
| 2026-05-05 14:24 | 37.94367 | 23.95854 | 287 ft | 3 kts | 96° |
| 2026-05-05 14:24 | 37.94367 | 23.95855 | 287 ft | 0 kts | 98° |
| 2026-05-05 14:25 | 37.94350 | 23.95908 | 286 ft | 15 kts | 97° |
| 2026-05-05 14:25 | 37.94431 | 23.96025 | 290 ft | 21 kts | 37° |
| 2026-05-05 14:25 | 37.94536 | 23.96124 | 293 ft | 17 kts | 38° |
| 2026-05-05 14:26 | 37.94630 | 23.96216 | 294 ft | 18 kts | 37° |
| 2026-05-05 14:26 | 37.94616 | 23.96320 | 295 ft | 17 kts | 174° |
| 2026-05-05 14:26 | 37.94495 | 23.96344 | 289 ft | 15 kts | 165° |
| 2026-05-05 14:26 | 37.94326 | 23.96204 | 284 ft | 61 kts | 217° |
| 2026-05-05 14:27 | 37.93782 | 23.95682 | 271 ft | 128 kts | 217° |
| 2026-05-05 14:27 | 37.93030 | 23.94962 | 544 ft | 137 kts | 217° |
| 2026-05-05 14:27 | 37.92263 | 23.94295 | 1053 ft | 134 kts | 210° |
| 2026-05-05 14:27 | 37.91448 | 23.93705 | 1524 ft | 134 kts | 210° |
| 2026-05-05 14:28 | 37.90626 | 23.93125 | 1941 ft | 138 kts | 210° |
| 2026-05-05 14:28 | 37.89779 | 23.92531 | 2443 ft | 142 kts | 209° |
| 2026-05-05 14:28 | 37.88879 | 23.91905 | 2788 ft | 163 kts | 209° |
| 2026-05-05 14:28 | 37.87791 | 23.91168 | 3044 ft | 187 kts | 208° |
| 2026-05-05 14:29 | 37.86618 | 23.90385 | 3548 ft | 194 kts | 208° |
| 2026-05-05 14:29 | 37.85418 | 23.89584 | 4121 ft | 196 kts | 211° |
| 2026-05-05 14:29 | 37.84481 | 23.88405 | 4599 ft | 196 kts | 252° |
| 2026-05-05 14:29 | 37.84461 | 23.86727 | 5080 ft | 192 kts | 285° |
| 2026-05-05 14:30 | 37.84796 | 23.85103 | 5642 ft | 193 kts | 288° |
| 2026-05-05 14:30 | 37.85141 | 23.83473 | 6206 ft | 193 kts | 288° |
| 2026-05-05 14:30 | 37.85499 | 23.81849 | 6741 ft | 194 kts | 289° |
| 2026-05-05 14:30 | 37.85871 | 23.80211 | 7267 ft | 195 kts | 290° |
| 2026-05-05 14:31 | 37.86254 | 23.78560 | 7784 ft | 196 kts | 290° |
| 2026-05-05 14:31 | 37.86639 | 23.76923 | 8263 ft | 198 kts | 291° |
| 2026-05-05 14:31 | 37.87047 | 23.75220 | 8521 ft | 214 kts | 291° |
| 2026-05-05 14:31 | 37.87497 | 23.73356 | 8793 ft | 225 kts | 290° |
| 2026-05-05 14:32 | 37.87954 | 23.71455 | 9210 ft | 230 kts | 291° |
| 2026-05-05 14:32 | 37.88419 | 23.69526 | 9686 ft | 231 kts | 291° |
| 2026-05-05 14:32 | 37.88894 | 23.67560 | 10132 ft | 234 kts | 291° |
| 2026-05-05 14:32 | 37.89367 | 23.65605 | 10604 ft | 236 kts | 291° |
| 2026-05-05 14:33 | 37.89845 | 23.63637 | 11071 ft | 236 kts | 292° |
| 2026-05-05 14:33 | 37.90336 | 23.61619 | 11443 ft | 239 kts | 292° |
| 2026-05-05 14:33 | 37.90823 | 23.59616 | 11863 ft | 242 kts | 292° |
| 2026-05-05 14:33 | 37.91313 | 23.57599 | 12268 ft | 242 kts | 292° |
| 2026-05-05 14:34 | 37.91814 | 23.55541 | 12603 ft | 247 kts | 292° |
| 2026-05-05 14:34 | 37.92323 | 23.53450 | 13048 ft | 248 kts | 292° |
| 2026-05-05 14:34 | 37.92829 | 23.51364 | 13424 ft | 250 kts | 292° |
| 2026-05-05 14:34 | 37.93333 | 23.49285 | 13830 ft | 249 kts | 292° |
| 2026-05-05 14:35 | 37.93848 | 23.47164 | 14164 ft | 252 kts | 292° |
| 2026-05-05 14:35 | 37.94360 | 23.45053 | 14591 ft | 251 kts | 292° |
| 2026-05-05 14:35 | 37.94865 | 23.42969 | 14972 ft | 250 kts | 292° |
| 2026-05-05 14:35 | 37.95376 | 23.40855 | 15330 ft | 251 kts | 292° |
| 2026-05-05 14:36 | 37.95885 | 23.38753 | 15662 ft | 252 kts | 292° |
| 2026-05-05 14:36 | 37.96399 | 23.36622 | 16005 ft | 252 kts | 292° |
| 2026-05-05 14:36 | 37.97077 | 23.34636 | 16283 ft | 246 kts | 309° |
| 2026-05-05 14:36 | 37.98214 | 23.33039 | 16519 ft | 245 kts | 318° |
| 2026-05-05 14:37 | 37.99416 | 23.31529 | 16847 ft | 245 kts | 318° |
| 2026-05-05 14:37 | 38.00632 | 23.30006 | 17119 ft | 245 kts | 318° |
| 2026-05-05 14:37 | 38.01841 | 23.28492 | 17439 ft | 244 kts | 318° |
| 2026-05-05 14:37 | 38.03052 | 23.26977 | 17685 ft | 246 kts | 318° |
| 2026-05-05 14:38 | 38.04263 | 23.25459 | 17985 ft | 246 kts | 318° |
| 2026-05-05 14:38 | 38.05480 | 23.23932 | 18306 ft | 245 kts | 318° |
| 2026-05-05 14:38 | 38.06686 | 23.22417 | 18549 ft | 246 kts | 318° |
| 2026-05-05 14:38 | 38.07911 | 23.20879 | 18812 ft | 246 kts | 318° |
| 2026-05-05 14:39 | 38.09141 | 23.19333 | 19037 ft | 250 kts | 318° |
| 2026-05-05 14:39 | 38.10358 | 23.17803 | 19328 ft | 248 kts | 317° |
| 2026-05-05 14:39 | 38.11589 | 23.16253 | 19594 ft | 248 kts | 318° |
| 2026-05-05 14:39 | 38.12820 | 23.14703 | 19823 ft | 250 kts | 318° |
| 2026-05-05 14:40 | 38.14043 | 23.13164 | 20068 ft | 250 kts | 317° |
| 2026-05-05 14:40 | 38.15282 | 23.11602 | 20293 ft | 250 kts | 318° |
| 2026-05-05 14:40 | 38.16513 | 23.10050 | 20496 ft | 251 kts | 317° |
| 2026-05-05 14:40 | 38.17749 | 23.08490 | 20718 ft | 251 kts | 317° |
| 2026-05-05 14:41 | 38.18984 | 23.06930 | 20896 ft | 252 kts | 318° |
| 2026-05-05 14:41 | 38.20233 | 23.05352 | 21098 ft | 251 kts | 317° |
| 2026-05-05 14:41 | 38.21458 | 23.03804 | 21340 ft | 249 kts | 317° |
| 2026-05-05 14:41 | 38.22673 | 23.02268 | 21582 ft | 247 kts | 318° |
| 2026-05-05 14:42 | 38.23896 | 23.00720 | 21833 ft | 245 kts | 317° |
| 2026-05-05 14:42 | 38.25092 | 22.99205 | 22080 ft | 242 kts | 318° |
| 2026-05-05 14:42 | 38.26278 | 22.97704 | 22190 ft | 245 kts | 317° |
| 2026-05-05 14:42 | 38.27521 | 22.96135 | 22090 ft | 256 kts | 318° |
| 2026-05-05 14:43 | 38.28797 | 22.94520 | 22059 ft | 264 kts | 317° |
| 2026-05-05 14:43 | 38.30105 | 22.92863 | 22056 ft | 270 kts | 318° |
| 2026-05-05 14:43 | 38.31461 | 22.91143 | 22046 ft | 275 kts | 317° |
| 2026-05-05 14:43 | 38.32817 | 22.89422 | 22037 ft | 279 kts | 317° |
| 2026-05-05 14:44 | 38.34189 | 22.87680 | 22043 ft | 282 kts | 317° |
| 2026-05-05 14:44 | 38.35596 | 22.85891 | 22052 ft | 285 kts | 317° |
| 2026-05-05 14:44 | 38.36990 | 22.84117 | 22050 ft | 287 kts | 317° |
| 2026-05-05 14:44 | 38.38404 | 22.82318 | 22046 ft | 290 kts | 317° |
| 2026-05-05 14:45 | 38.39838 | 22.80492 | 22049 ft | 291 kts | 317° |
| 2026-05-05 14:45 | 38.41281 | 22.78653 | 22042 ft | 293 kts | 317° |
| 2026-05-05 14:45 | 38.42722 | 22.76817 | 22040 ft | 294 kts | 317° |
| 2026-05-05 14:45 | 38.44161 | 22.74980 | 22049 ft | 295 kts | 317° |
| 2026-05-05 14:46 | 38.45616 | 22.73123 | 22055 ft | 296 kts | 317° |
| 2026-05-05 14:46 | 38.47069 | 22.71269 | 22053 ft | 297 kts | 317° |
| 2026-05-05 14:46 | 38.48523 | 22.69410 | 22063 ft | 297 kts | 317° |
| 2026-05-05 14:46 | 38.49995 | 22.67528 | 22069 ft | 297 kts | 317° |
| 2026-05-05 14:47 | 38.51443 | 22.65676 | 22076 ft | 298 kts | 317° |
| 2026-05-05 14:47 | 38.52922 | 22.63783 | 22080 ft | 299 kts | 317° |
| 2026-05-05 14:47 | 38.54371 | 22.61928 | 22083 ft | 298 kts | 317° |
| 2026-05-05 14:47 | 38.55841 | 22.60044 | 22096 ft | 298 kts | 317° |
| 2026-05-05 14:48 | 38.57294 | 22.58180 | 22096 ft | 298 kts | 317° |
| 2026-05-05 14:48 | 38.58770 | 22.56287 | 22095 ft | 298 kts | 317° |
| 2026-05-05 14:48 | 38.60236 | 22.54404 | 22099 ft | 298 kts | 317° |
| 2026-05-05 14:48 | 38.61695 | 22.52530 | 22098 ft | 298 kts | 317° |
| 2026-05-05 14:49 | 38.63147 | 22.50664 | 22099 ft | 298 kts | 317° |
| 2026-05-05 14:49 | 38.64619 | 22.48770 | 22100 ft | 298 kts | 317° |
| 2026-05-05 14:49 | 38.66081 | 22.46890 | 22095 ft | 298 kts | 317° |
| 2026-05-05 14:49 | 38.67542 | 22.45008 | 22101 ft | 298 kts | 317° |
| 2026-05-05 14:50 | 38.68987 | 22.43145 | 22105 ft | 298 kts | 317° |
| 2026-05-05 14:50 | 38.70447 | 22.41264 | 22108 ft | 297 kts | 317° |
| 2026-05-05 14:50 | 38.71901 | 22.39387 | 22111 ft | 297 kts | 317° |
| 2026-05-05 14:50 | 38.73362 | 22.37502 | 22108 ft | 298 kts | 317° |
| 2026-05-05 14:51 | 38.74826 | 22.35611 | 22109 ft | 298 kts | 317° |
| 2026-05-05 14:51 | 38.76266 | 22.33749 | 22107 ft | 298 kts | 316° |
| 2026-05-05 14:51 | 38.77738 | 22.31846 | 22113 ft | 297 kts | 316° |
| 2026-05-05 14:51 | 38.79176 | 22.29985 | 22110 ft | 297 kts | 316° |
| 2026-05-05 14:52 | 38.80640 | 22.28089 | 22107 ft | 297 kts | 316° |
| 2026-05-05 14:52 | 38.82091 | 22.26209 | 22101 ft | 297 kts | 316° |
| 2026-05-05 14:52 | 38.83551 | 22.24317 | 22102 ft | 297 kts | 316° |
| 2026-05-05 14:52 | 38.84999 | 22.22439 | 22104 ft | 297 kts | 316° |
| 2026-05-05 14:53 | 38.86433 | 22.20577 | 22107 ft | 297 kts | 316° |
| 2026-05-05 14:53 | 38.87900 | 22.18672 | 22098 ft | 297 kts | 316° |
| 2026-05-05 14:53 | 38.89349 | 22.16790 | 22100 ft | 296 kts | 316° |
| 2026-05-05 14:53 | 38.90793 | 22.14911 | 22099 ft | 296 kts | 316° |
| 2026-05-05 14:54 | 38.92230 | 22.13041 | 22097 ft | 296 kts | 316° |
| 2026-05-05 14:54 | 38.93668 | 22.11168 | 22094 ft | 296 kts | 316° |
| 2026-05-05 14:54 | 38.95114 | 22.09284 | 22096 ft | 296 kts | 316° |
| 2026-05-05 14:54 | 38.96563 | 22.07396 | 22096 ft | 295 kts | 316° |
| 2026-05-05 14:55 | 38.98007 | 22.05512 | 22093 ft | 295 kts | 316° |
| 2026-05-05 14:55 | 38.99440 | 22.03641 | 22091 ft | 295 kts | 316° |
| 2026-05-05 14:55 | 39.00887 | 22.01752 | 22087 ft | 295 kts | 316° |
| 2026-05-05 14:55 | 39.02319 | 21.99881 | 22089 ft | 295 kts | 316° |
| 2026-05-05 14:56 | 39.03748 | 21.98012 | 22091 ft | 294 kts | 316° |
| 2026-05-05 14:56 | 39.05191 | 21.96123 | 22092 ft | 294 kts | 316° |
| 2026-05-05 14:56 | 39.06615 | 21.94260 | 22090 ft | 294 kts | 316° |
| 2026-05-05 14:56 | 39.08036 | 21.92397 | 22099 ft | 294 kts | 316° |
| 2026-05-05 14:57 | 39.09483 | 21.90501 | 22097 ft | 293 kts | 316° |
| 2026-05-05 14:57 | 39.10894 | 21.88650 | 22099 ft | 293 kts | 316° |
| 2026-05-05 14:57 | 39.12331 | 21.86764 | 22099 ft | 294 kts | 316° |
| 2026-05-05 14:57 | 39.13764 | 21.84882 | 22101 ft | 294 kts | 316° |
| 2026-05-05 14:58 | 39.15180 | 21.83021 | 22100 ft | 294 kts | 316° |
| 2026-05-05 14:58 | 39.16622 | 21.81126 | 22100 ft | 294 kts | 316° |
| 2026-05-05 14:58 | 39.17780 | 21.79601 | 22105 ft | 294 kts | 316° |
| 2026-05-05 14:58 | 39.19202 | 21.77729 | 22103 ft | 294 kts | 316° |
| 2026-05-05 14:59 | 39.20644 | 21.75831 | 22103 ft | 295 kts | 316° |
| 2026-05-05 14:59 | 39.22071 | 21.73949 | 22107 ft | 295 kts | 316° |
| 2026-05-05 14:59 | 39.23500 | 21.72065 | 22104 ft | 296 kts | 316° |
| 2026-05-05 14:59 | 39.24941 | 21.70164 | 22102 ft | 296 kts | 316° |
| 2026-05-05 15:00 | 39.26385 | 21.68258 | 22105 ft | 296 kts | 316° |
| 2026-05-05 15:00 | 39.27345 | 21.66990 | 22101 ft | 297 kts | 316° |
| 2026-05-05 15:00 | 39.29255 | 21.64465 | 22103 ft | 297 kts | 316° |
| 2026-05-05 15:00 | 39.30702 | 21.62551 | 22106 ft | 297 kts | 316° |
| 2026-05-05 15:01 | 39.32133 | 21.60656 | 22109 ft | 297 kts | 316° |
| 2026-05-05 15:01 | 39.33586 | 21.58732 | 22110 ft | 297 kts | 316° |
| 2026-05-05 15:01 | 39.35030 | 21.56818 | 22114 ft | 297 kts | 316° |
| 2026-05-05 15:01 | 39.36456 | 21.54927 | 22112 ft | 297 kts | 316° |
| 2026-05-05 15:02 | 39.37903 | 21.53006 | 22116 ft | 297 kts | 316° |
| 2026-05-05 15:02 | 39.39359 | 21.51073 | 22113 ft | 297 kts | 316° |
| 2026-05-05 15:02 | 39.40781 | 21.49182 | 22119 ft | 297 kts | 316° |
| 2026-05-05 15:02 | 39.42232 | 21.47253 | 22122 ft | 297 kts | 316° |
| 2026-05-05 15:03 | 39.43661 | 21.45352 | 22124 ft | 298 kts | 316° |
| 2026-05-05 15:03 | 39.45121 | 21.43409 | 22130 ft | 298 kts | 316° |
| 2026-05-05 15:03 | 39.46548 | 21.41508 | 22133 ft | 298 kts | 315° |
| 2026-05-05 15:03 | 39.48002 | 21.39570 | 22135 ft | 298 kts | 315° |
| 2026-05-05 15:04 | 39.49444 | 21.37646 | 22135 ft | 298 kts | 315° |
| 2026-05-05 15:04 | 39.50891 | 21.35715 | 22140 ft | 298 kts | 315° |
| 2026-05-05 15:04 | 39.52336 | 21.33784 | 22140 ft | 299 kts | 315° |
| 2026-05-05 15:04 | 39.53787 | 21.31846 | 22145 ft | 299 kts | 315° |
| 2026-05-05 15:05 | 39.56681 | 21.27974 | 22140 ft | 300 kts | 315° |
| 2026-05-05 15:05 | 39.58116 | 21.26054 | 22148 ft | 300 kts | 315° |
| 2026-05-05 15:05 | 39.59576 | 21.24098 | 22152 ft | 301 kts | 315° |
| 2026-05-05 15:06 | 39.61021 | 21.22161 | 22148 ft | 301 kts | 315° |
| 2026-05-05 15:06 | 39.62483 | 21.20200 | 22145 ft | 301 kts | 315° |
| 2026-05-05 15:06 | 39.63946 | 21.18235 | 22143 ft | 301 kts | 315° |
| 2026-05-05 15:06 | 39.65389 | 21.16297 | 22143 ft | 301 kts | 315° |
| 2026-05-05 15:07 | 39.66843 | 21.14342 | 22146 ft | 301 kts | 315° |
| 2026-05-05 15:07 | 39.68298 | 21.12386 | 22142 ft | 301 kts | 315° |
| 2026-05-05 15:07 | 39.69747 | 21.10435 | 22142 ft | 301 kts | 315° |
| 2026-05-05 15:07 | 39.71198 | 21.08481 | 22140 ft | 301 kts | 315° |
| 2026-05-05 15:08 | 39.72654 | 21.06518 | 22136 ft | 301 kts | 315° |
| 2026-05-05 15:08 | 39.74101 | 21.04567 | 22141 ft | 300 kts | 315° |
| 2026-05-05 15:08 | 39.75534 | 21.02634 | 22137 ft | 301 kts | 315° |
| 2026-05-05 15:08 | 39.76997 | 21.00659 | 22137 ft | 301 kts | 315° |
| 2026-05-05 15:09 | 39.78451 | 20.98694 | 22140 ft | 302 kts | 315° |
| 2026-05-05 15:09 | 39.79908 | 20.96725 | 22141 ft | 303 kts | 315° |
| 2026-05-05 15:09 | 39.81356 | 20.94766 | 22138 ft | 303 kts | 315° |
| 2026-05-05 15:09 | 39.82816 | 20.92789 | 22138 ft | 304 kts | 315° |
| 2026-05-05 15:10 | 39.84287 | 20.90797 | 22140 ft | 304 kts | 315° |
| 2026-05-05 15:10 | 39.85746 | 20.88819 | 22142 ft | 304 kts | 315° |
| 2026-05-05 15:10 | 39.87206 | 20.86839 | 22145 ft | 304 kts | 315° |
| 2026-05-05 15:10 | 39.88664 | 20.84859 | 22151 ft | 304 kts | 315° |
| 2026-05-05 15:11 | 39.90117 | 20.82886 | 22161 ft | 304 kts | 315° |
| 2026-05-05 15:11 | 39.91589 | 20.80886 | 22161 ft | 304 kts | 315° |
| 2026-05-05 15:11 | 39.93048 | 20.78902 | 22164 ft | 304 kts | 315° |
| 2026-05-05 15:11 | 39.94507 | 20.76916 | 22171 ft | 304 kts | 314° |
| 2026-05-05 15:12 | 39.95960 | 20.74937 | 22178 ft | 305 kts | 314° |
| 2026-05-05 15:12 | 39.97425 | 20.72940 | 22172 ft | 305 kts | 314° |
| 2026-05-05 15:12 | 39.98891 | 20.70941 | 22170 ft | 304 kts | 314° |
| 2026-05-05 15:12 | 40.00349 | 20.68952 | 22165 ft | 304 kts | 314° |
| 2026-05-05 15:13 | 40.01823 | 20.66939 | 22164 ft | 304 kts | 315° |
| 2026-05-05 15:13 | 40.03272 | 20.64961 | 22162 ft | 304 kts | 314° |
| 2026-05-05 15:13 | 40.04742 | 20.62950 | 22156 ft | 304 kts | 314° |
| 2026-05-05 15:13 | 40.06192 | 20.60966 | 22152 ft | 304 kts | 314° |
| 2026-05-05 15:14 | 40.07775 | 20.59164 | 22136 ft | 304 kts | 327° |
| 2026-05-05 15:14 | 40.09658 | 20.57884 | 22142 ft | 305 kts | 333° |
| 2026-05-05 15:14 | 40.11576 | 20.56676 | 22145 ft | 305 kts | 333° |
| 2026-05-05 15:14 | 40.13493 | 20.55469 | 22145 ft | 305 kts | 333° |
| 2026-05-05 15:15 | 40.15413 | 20.54255 | 22140 ft | 305 kts | 333° |
| 2026-05-05 15:15 | 40.17327 | 20.53042 | 22144 ft | 306 kts | 333° |
| 2026-05-05 15:15 | 40.19221 | 20.51837 | 22133 ft | 307 kts | 333° |
| 2026-05-05 15:15 | 40.21158 | 20.50603 | 22133 ft | 307 kts | 333° |
| 2026-05-05 15:16 | 40.23079 | 20.49376 | 22138 ft | 307 kts | 333° |
| 2026-05-05 15:16 | 40.24992 | 20.48153 | 22135 ft | 308 kts | 333° |
| 2026-05-05 15:16 | 40.26906 | 20.46926 | 22135 ft | 307 kts | 333° |
| 2026-05-05 15:16 | 40.28824 | 20.45697 | 22140 ft | 307 kts | 333° |
| 2026-05-05 15:17 | 40.30741 | 20.44466 | 22141 ft | 306 kts | 333° |
| 2026-05-05 15:17 | 40.32654 | 20.43238 | 22135 ft | 306 kts | 333° |
| 2026-05-05 15:17 | 40.34568 | 20.42007 | 22138 ft | 307 kts | 333° |
| 2026-05-05 15:17 | 40.36492 | 20.40769 | 22137 ft | 307 kts | 333° |
| 2026-05-05 15:18 | 40.38424 | 20.39525 | 22139 ft | 308 kts | 333° |
| 2026-05-05 15:18 | 40.40344 | 20.38289 | 22135 ft | 308 kts | 332° |
| 2026-05-05 15:18 | 40.42189 | 20.37099 | 22133 ft | 308 kts | 333° |
| 2026-05-05 15:18 | 40.44122 | 20.35851 | 22133 ft | 308 kts | 333° |
| 2026-05-05 15:19 | 40.46070 | 20.34593 | 22139 ft | 309 kts | 332° |
| 2026-05-05 15:19 | 40.48004 | 20.33344 | 22124 ft | 309 kts | 332° |
| 2026-05-05 15:19 | 40.49922 | 20.32104 | 22122 ft | 309 kts | 332° |
| 2026-05-05 15:19 | 40.51852 | 20.30856 | 22124 ft | 310 kts | 332° |
| 2026-05-05 15:20 | 40.53796 | 20.29594 | 22121 ft | 310 kts | 332° |
| 2026-05-05 15:20 | 40.55727 | 20.28331 | 22122 ft | 311 kts | 332° |
| 2026-05-05 15:20 | 40.57658 | 20.27066 | 22122 ft | 311 kts | 332° |
| 2026-05-05 15:20 | 40.59594 | 20.25798 | 22113 ft | 312 kts | 332° |
| 2026-05-05 15:21 | 40.61544 | 20.24520 | 22117 ft | 312 kts | 332° |
| 2026-05-05 15:21 | 40.63490 | 20.23243 | 22113 ft | 313 kts | 332° |
| 2026-05-05 15:21 | 40.65455 | 20.21954 | 22109 ft | 313 kts | 332° |
| 2026-05-05 15:21 | 40.67400 | 20.20677 | 22109 ft | 313 kts | 331° |
| 2026-05-05 15:22 | 40.69333 | 20.19407 | 22105 ft | 313 kts | 332° |
| 2026-05-05 15:22 | 40.71276 | 20.18130 | 22108 ft | 312 kts | 332° |
| 2026-05-05 15:22 | 40.73214 | 20.16855 | 22108 ft | 313 kts | 331° |
| 2026-05-05 15:22 | 40.75174 | 20.15564 | 22108 ft | 313 kts | 331° |
| 2026-05-05 15:23 | 40.77114 | 20.14287 | 22115 ft | 313 kts | 331° |
| 2026-05-05 15:23 | 40.79056 | 20.13007 | 22113 ft | 313 kts | 331° |
| 2026-05-05 15:23 | 40.81010 | 20.11718 | 22102 ft | 314 kts | 331° |
| 2026-05-05 15:23 | 40.82957 | 20.10433 | 22102 ft | 314 kts | 332° |
| 2026-05-05 15:24 | 40.84904 | 20.09147 | 22103 ft | 314 kts | 331° |
| 2026-05-05 15:24 | 40.86856 | 20.07858 | 22108 ft | 314 kts | 331° |
| 2026-05-05 15:24 | 40.88826 | 20.06567 | 22108 ft | 315 kts | 331° |
| 2026-05-05 15:24 | 40.90786 | 20.05287 | 22100 ft | 315 kts | 332° |
| 2026-05-05 15:25 | 40.92759 | 20.03998 | 22099 ft | 315 kts | 332° |
| 2026-05-05 15:25 | 40.94704 | 20.02725 | 22099 ft | 315 kts | 331° |
| 2026-05-05 15:25 | 40.96680 | 20.01432 | 22099 ft | 315 kts | 331° |
| 2026-05-05 15:25 | 40.98636 | 20.00151 | 22099 ft | 315 kts | 331° |
| 2026-05-05 15:26 | 41.00584 | 19.98873 | 22095 ft | 315 kts | 331° |
| 2026-05-05 15:26 | 41.02568 | 19.97571 | 22097 ft | 315 kts | 331° |
| 2026-05-05 15:26 | 41.04513 | 19.96294 | 22097 ft | 315 kts | 331° |
| 2026-05-05 15:26 | 41.06482 | 19.95000 | 22103 ft | 316 kts | 331° |
| 2026-05-05 15:27 | 41.08468 | 19.93695 | 22103 ft | 316 kts | 331° |
| 2026-05-05 15:27 | 41.10431 | 19.92409 | 22101 ft | 316 kts | 331° |
| 2026-05-05 15:27 | 41.12401 | 19.91117 | 22103 ft | 317 kts | 331° |
| 2026-05-05 15:27 | 41.14400 | 19.89806 | 22101 ft | 318 kts | 332° |
| 2026-05-05 15:28 | 41.16374 | 19.88510 | 22105 ft | 318 kts | 331° |
| 2026-05-05 15:28 | 41.18352 | 19.87210 | 22107 ft | 318 kts | 332° |
| 2026-05-05 15:28 | 41.20344 | 19.85900 | 22104 ft | 318 kts | 332° |
| 2026-05-05 15:28 | 41.22319 | 19.84600 | 22101 ft | 319 kts | 332° |
| 2026-05-05 15:29 | 41.24297 | 19.83298 | 22100 ft | 319 kts | 332° |
| 2026-05-05 15:29 | 41.26293 | 19.81982 | 22107 ft | 319 kts | 332° |
| 2026-05-05 15:29 | 41.28281 | 19.80671 | 22103 ft | 320 kts | 332° |
| 2026-05-05 15:29 | 41.30296 | 19.79342 | 22101 ft | 320 kts | 331° |
| 2026-05-05 15:30 | 41.32276 | 19.78034 | 22101 ft | 320 kts | 332° |
| 2026-05-05 15:30 | 41.34273 | 19.76714 | 22101 ft | 321 kts | 332° |
| 2026-05-05 15:30 | 41.36260 | 19.75400 | 22096 ft | 321 kts | 332° |
| 2026-05-05 15:30 | 41.38259 | 19.74078 | 22094 ft | 320 kts | 332° |
| 2026-05-05 15:31 | 41.40261 | 19.72752 | 22097 ft | 320 kts | 331° |
| 2026-05-05 15:31 | 41.42278 | 19.71520 | 22091 ft | 322 kts | 336° |
| 2026-05-05 15:31 | 41.44390 | 19.70510 | 22093 ft | 322 kts | 338° |
| 2026-05-05 15:31 | 41.46505 | 19.69533 | 22090 ft | 322 kts | 339° |
| 2026-05-05 15:32 | 41.48639 | 19.68547 | 22090 ft | 323 kts | 338° |
| 2026-05-05 15:32 | 41.50759 | 19.67564 | 22087 ft | 323 kts | 338° |
| 2026-05-05 15:32 | 41.52874 | 19.66580 | 22091 ft | 323 kts | 338° |
| 2026-05-05 15:32 | 41.54997 | 19.65591 | 22090 ft | 323 kts | 338° |
| 2026-05-05 15:33 | 41.57105 | 19.64607 | 22088 ft | 323 kts | 338° |
| 2026-05-05 15:33 | 41.59230 | 19.63614 | 22089 ft | 323 kts | 338° |
| 2026-05-05 15:33 | 41.61353 | 19.62620 | 22086 ft | 323 kts | 338° |
| 2026-05-05 15:33 | 41.63494 | 19.61616 | 22088 ft | 324 kts | 338° |
| 2026-05-05 15:34 | 41.65591 | 19.60632 | 22090 ft | 324 kts | 338° |
| 2026-05-05 15:34 | 41.67715 | 19.59635 | 22090 ft | 324 kts | 338° |
| 2026-05-05 15:34 | 41.69858 | 19.58628 | 22087 ft | 324 kts | 338° |
| 2026-05-05 15:34 | 41.71982 | 19.57629 | 22083 ft | 324 kts | 338° |
| 2026-05-05 15:35 | 41.74095 | 19.56634 | 22086 ft | 324 kts | 338° |
| 2026-05-05 15:35 | 41.76223 | 19.55631 | 22084 ft | 324 kts | 338° |
| 2026-05-05 15:35 | 41.78360 | 19.54624 | 22081 ft | 324 kts | 338° |
| 2026-05-05 15:35 | 41.80491 | 19.53618 | 22076 ft | 325 kts | 338° |
| 2026-05-05 15:36 | 41.82634 | 19.52605 | 21830 ft | 333 kts | 338° |
| 2026-05-05 15:36 | 41.84823 | 19.51570 | 21338 ft | 333 kts | 338° |
| 2026-05-05 15:36 | 41.87001 | 19.50536 | 20824 ft | 329 kts | 338° |
| 2026-05-05 15:36 | 41.89149 | 19.49516 | 20311 ft | 325 kts | 338° |
| 2026-05-05 15:37 | 41.91278 | 19.48505 | 19819 ft | 332 kts | 338° |
| 2026-05-05 15:37 | 41.93480 | 19.47462 | 19337 ft | 341 kts | 338° |
| 2026-05-05 15:37 | 41.95753 | 19.46386 | 18857 ft | 348 kts | 338° |
| 2026-05-05 15:37 | 41.98043 | 19.45300 | 18383 ft | 352 kts | 338° |
| 2026-05-05 15:38 | 42.00363 | 19.44202 | 17892 ft | 355 kts | 339° |
| 2026-05-05 15:38 | 42.02678 | 19.43107 | 17398 ft | 356 kts | 339° |
| 2026-05-05 15:38 | 42.05000 | 19.42008 | 16899 ft | 355 kts | 339° |
| 2026-05-05 15:38 | 42.07327 | 19.40905 | 16412 ft | 353 kts | 339° |
| 2026-05-05 15:39 | 42.09635 | 19.39814 | 15901 ft | 351 kts | 339° |
| 2026-05-05 15:39 | 42.11919 | 19.38740 | 15415 ft | 349 kts | 340° |
| 2026-05-05 15:39 | 42.14213 | 19.37648 | 14915 ft | 349 kts | 340° |
| 2026-05-05 15:39 | 42.16505 | 19.36554 | 14421 ft | 348 kts | 340° |
| 2026-05-05 15:40 | 42.18776 | 19.35471 | 13932 ft | 348 kts | 340° |
| 2026-05-05 15:40 | 42.21034 | 19.34392 | 13429 ft | 348 kts | 340° |
| 2026-05-05 15:40 | 42.23195 | 19.32984 | 12887 ft | 338 kts | 323° |
| 2026-05-05 15:40 | 42.24909 | 19.30917 | 12401 ft | 333 kts | 315° |
| 2026-05-05 15:41 | 42.26577 | 19.28755 | 11897 ft | 334 kts | 315° |
| 2026-05-05 15:41 | 42.28235 | 19.26592 | 11404 ft | 332 kts | 314° |
| 2026-05-05 15:41 | 42.29886 | 19.24407 | 10905 ft | 330 kts | 313° |
| 2026-05-05 15:41 | 42.31590 | 19.22383 | 10386 ft | 323 kts | 326° |
| 2026-05-05 15:42 | 42.33627 | 19.21338 | 9884 ft | 313 kts | 348° |
| 2026-05-05 15:42 | 42.35778 | 19.21291 | 9390 ft | 305 kts | 3° |
| 2026-05-05 15:42 | 42.37877 | 19.21695 | 8894 ft | 307 kts | 15° |
| 2026-05-05 15:42 | 42.39730 | 19.23019 | 8392 ft | 303 kts | 39° |
| 2026-05-05 15:43 | 42.41051 | 19.25165 | 7898 ft | 293 kts | 58° |
| 2026-05-05 15:43 | 42.41930 | 19.27556 | 7396 ft | 285 kts | 75° |
| 2026-05-05 15:43 | 42.41876 | 19.30172 | 6888 ft | 274 kts | 109° |
| 2026-05-05 15:43 | 42.40827 | 19.32180 | 6398 ft | 263 kts | 146° |
| 2026-05-05 15:44 | 42.39131 | 19.32766 | 5901 ft | 250 kts | 186° |
| 2026-05-05 15:44 | 42.37484 | 19.32294 | 5615 ft | 240 kts | 193° |
| 2026-05-05 15:44 | 42.35787 | 19.31962 | 5383 ft | 252 kts | 187° |
| 2026-05-05 15:44 | 42.34019 | 19.31741 | 5152 ft | 260 kts | 186° |
| 2026-05-05 15:45 | 42.32219 | 19.31517 | 4831 ft | 256 kts | 186° |
| 2026-05-05 15:45 | 42.30472 | 19.31301 | 4466 ft | 247 kts | 186° |
| 2026-05-05 15:45 | 42.28788 | 19.31086 | 4127 ft | 239 kts | 186° |
| 2026-05-05 15:45 | 42.27151 | 19.30907 | 3812 ft | 238 kts | 185° |
| 2026-05-05 15:46 | 42.25514 | 19.30511 | 3242 ft | 243 kts | 205° |
| 2026-05-05 15:46 | 42.24357 | 19.28989 | 2882 ft | 232 kts | 244° |
| 2026-05-05 15:46 | 42.24174 | 19.26883 | 2504 ft | 234 kts | 280° |
| 2026-05-05 15:46 | 42.25024 | 19.25011 | 2040 ft | 238 kts | 321° |
| 2026-05-05 15:47 | 42.26519 | 19.24295 | 1765 ft | 225 kts | 358° |
| 2026-05-05 15:47 | 42.27537 | 19.24328 | 1631 ft | 216 kts | 4° |
| 2026-05-05 15:47 | 42.29491 | 19.24513 | 1347 ft | 203 kts | 4° |
| 2026-05-05 15:47 | 42.30854 | 19.24650 | 1130 ft | 191 kts | 5° |
| 2026-05-05 15:48 | 42.32165 | 19.24789 | 1082 ft | 189 kts | 6° |
| 2026-05-05 15:48 | 42.33397 | 19.25371 | 1028 ft | 189 kts | 37° |
| 2026-05-05 15:48 | 42.34407 | 19.26475 | 1015 ft | 186 kts | 41° |
| 2026-05-05 15:48 | 42.35376 | 19.27595 | 991 ft | 175 kts | 41° |
| 2026-05-05 15:49 | 42.36269 | 19.28639 | 1011 ft | 166 kts | 42° |
| 2026-05-05 15:49 | 42.37159 | 19.29608 | 1048 ft | 163 kts | 33° |
| 2026-05-05 15:49 | 42.38253 | 19.29943 | 1038 ft | 160 kts | 4° |
| 2026-05-05 15:49 | 42.39349 | 19.30048 | 998 ft | 152 kts | 2° |
| 2026-05-05 15:50 | 42.40299 | 19.29600 | 989 ft | 145 kts | 317° |
| 2026-05-05 15:50 | 42.40716 | 19.28403 | 1001 ft | 142 kts | 277° |
| 2026-05-05 15:50 | 42.40602 | 19.27086 | 933 ft | 143 kts | 249° |
| 2026-05-05 15:50 | 42.40055 | 19.25976 | 787 ft | 143 kts | 214° |
| 2026-05-05 15:51 | 42.39158 | 19.25516 | 570 ft | 137 kts | 185° |
| 2026-05-05 15:51 | 42.38221 | 19.25413 | 408 ft | 132 kts | 182° |
| 2026-05-05 15:51 | 42.37311 | 19.25324 | 211 ft | 130 kts | 184° |
| 2026-05-05 15:51 | 42.36438 | 19.25236 | 114 ft | 117 kts | 183° |
| 2026-05-05 15:52 | 42.35868 | 19.25184 | 104 ft | 54 kts | 185° |
| 2026-05-05 15:52 | 42.35548 | 19.25150 | 100 ft | 39 kts | 185° |
| 2026-05-05 15:52 | 42.35338 | 19.25126 | 96 ft | 22 kts | 184° |
| 2026-05-05 15:52 | 42.35273 | 19.25000 | 92 ft | 18 kts | 274° |
| 2026-05-05 15:53 | 42.35314 | 19.24883 | 93 ft | 14 kts | 359° |
| 2026-05-05 15:53 | 42.35437 | 19.24894 | 95 ft | 19 kts | 4° |
| 2026-05-05 15:53 | 42.35574 | 19.24908 | 98 ft | 19 kts | 4° |
| 2026-05-05 15:53 | 42.35706 | 19.24922 | 101 ft | 18 kts | 5° |
| 2026-05-05 15:54 | 42.35837 | 19.24936 | 103 ft | 18 kts | 4° |
| 2026-05-05 15:54 | 42.35964 | 19.24949 | 106 ft | 18 kts | 4° |
| 2026-05-05 15:54 | 42.36103 | 19.24961 | 107 ft | 20 kts | 4° |
| 2026-05-05 15:54 | 42.36237 | 19.24977 | 109 ft | 18 kts | 4° |
| 2026-05-05 15:55 | 42.36369 | 19.24990 | 110 ft | 19 kts | 5° |
| 2026-05-05 15:55 | 42.36500 | 19.25003 | 113 ft | 19 kts | 4° |
| 2026-05-05 15:55 | 42.36618 | 19.24999 | 115 ft | 14 kts | 320° |
| 2026-05-05 15:55 | 42.36634 | 19.24860 | 113 ft | 13 kts | 268° |
| 2026-05-05 15:56 | 42.36630 | 19.24765 | 113 ft | 4 kts | 271° |
| 2026-05-05 15:56 | 42.36631 | 19.24751 | 113 ft | 0 kts | 293° |
| 2026-05-05 15:56 | 42.36633 | 19.24748 | 113 ft | 0 kts | 311° |